Time;durP1;ratioP1;P1;durP2;ratioP2;P2;SDS_P1;SDS_P2;PMS_P1;PMS_P2;Temp;Humidity;BMP_temperature;BMP_pressure;BME280_temperature;BME280_humidity;BME280_pressure;Samples;Min_cycle;Max_cycle;Signal;HPM_P1;HPM_P2
2023/12/23 00:01:40;;;;;;;55.27;2.10;;;;;;;;;;5031170;28;20451;-72
2023/12/23 00:04:07;;;;;;;55.13;1.90;;;;;;;;;;5031442;28;20463;-72
2023/12/23 00:06:34;;;;;;;55.53;2.00;;;;;;;;;;5031772;28;20454;-72
2023/12/23 00:09:01;;;;;;;55.37;2.00;;;;;;;;;;5043294;28;20439;-72
2023/12/23 00:11:28;;;;;;;55.70;1.90;;;;;;;;;;5051390;28;20823;-72
2023/12/23 00:13:56;;;;;;;55.47;2.07;;;;;;;;;;5051269;28;20451;-72
2023/12/23 00:16:24;;;;;;;55.43;2.10;;;;;;;;;;5051333;28;20450;-72
2023/12/23 00:18:50;;;;;;;55.57;2.10;;;;;;;;;;5051080;28;20574;-72
2023/12/23 00:21:17;;;;;;;55.60;1.87;;;;;;;;;;5051389;28;20545;-72
2023/12/23 00:23:44;;;;;;;55.50;2.20;;;;;;;;;;5050987;28;20490;-72
2023/12/23 00:26:11;;;;;;;55.50;2.10;;;;;;;;;;5051189;28;20449;-71
2023/12/23 00:28:38;;;;;;;55.77;2.17;;;;;;;;;;5050994;28;20455;-72
2023/12/23 00:31:06;;;;;;;55.40;2.10;;;;;;;;;;5051006;28;20451;-72
2023/12/23 00:33:34;;;;;;;55.53;2.00;;;;;;;;;;5051007;28;20492;-70
2023/12/23 00:36:01;;;;;;;55.67;1.90;;;;;;;;;;5050973;28;20960;-72
2023/12/23 00:38:28;;;;;;;55.57;1.97;;;;;;;;;;5051137;28;20483;-70
2023/12/23 00:40:55;;;;;;;58.00;2.30;;;;;;;;;;5050929;28;20463;-71
2023/12/23 00:43:22;;;;;;;55.70;2.80;;;;;;;;;;5050613;28;20470;-71
2023/12/23 00:45:49;;;;;;;55.47;2.10;;;;;;;;;;5050678;28;20944;-71
2023/12/23 00:48:18;;;;;;;55.40;1.90;;;;;;;;;;5051203;28;20451;-71
2023/12/23 00:50:45;;;;;;;55.37;2.30;;;;;;;;;;5050962;28;20454;-70
2023/12/23 00:53:12;;;;;;;55.37;2.40;;;;;;;;;;5050761;28;21009;-70
2023/12/23 00:55:39;;;;;;;55.40;2.20;;;;;;;;;;5050928;28;20452;-71
2023/12/23 00:58:06;;;;;;;55.60;2.30;;;;;;;;;;5050681;28;20846;-70
2023/12/23 01:00:33;;;;;;;55.60;2.40;;;;;;;;;;5051052;28;20454;-70
2023/12/23 01:03:00;;;;;;;55.60;2.20;;;;;;;;;;5050533;28;20459;-70
2023/12/23 01:05:29;;;;;;;55.40;2.20;;;;;;;;;;5050839;28;20445;-70
2023/12/23 01:07:56;;;;;;;55.53;2.10;;;;;;;;;;5048122;28;20464;-70
2023/12/23 01:10:25;;;;;;;55.57;2.10;;;;;;;;;;5050678;28;20461;-70
2023/12/23 01:12:52;;;;;;;55.57;2.13;;;;;;;;;;5032008;28;20509;-71
2023/12/23 01:15:19;;;;;;;55.40;2.10;;;;;;;;;;5034228;28;20525;-71
2023/12/23 01:17:46;;;;;;;55.57;2.47;;;;;;;;;;5034640;28;20462;-71
2023/12/23 01:20:13;;;;;;;55.77;2.17;;;;;;;;;;5035518;28;20451;-72
2023/12/23 01:22:42;;;;;;;55.80;2.40;;;;;;;;;;5048641;28;20469;-71
2023/12/23 01:25:09;;;;;;;55.50;2.10;;;;;;;;;;5034982;28;20944;-71
2023/12/23 01:27:36;;;;;;;55.43;1.93;;;;;;;;;;5034776;28;20462;-71
2023/12/23 01:30:03;;;;;;;55.47;2.27;;;;;;;;;;5034730;28;20443;-71
2023/12/23 01:32:30;;;;;;;55.50;2.00;;;;;;;;;;5034353;28;20471;-70
2023/12/23 01:34:57;;;;;;;55.50;2.13;;;;;;;;;;5034577;28;20958;-70
2023/12/23 01:37:24;;;;;;;55.50;2.40;;;;;;;;;;5034438;28;20935;-70
2023/12/23 01:39:53;;;;;;;55.77;2.63;;;;;;;;;;5034223;28;20860;-70
2023/12/23 01:42:20;;;;;;;55.60;2.40;;;;;;;;;;5034081;28;20470;-70
2023/12/23 01:44:47;;;;;;;55.50;2.20;;;;;;;;;;5034234;28;20450;-71
2023/12/23 01:47:14;;;;;;;55.47;2.30;;;;;;;;;;5034430;28;20452;-71
2023/12/23 01:49:42;;;;;;;55.47;2.00;;;;;;;;;;5034365;28;20445;-70
2023/12/23 01:52:10;;;;;;;55.57;2.30;;;;;;;;;;5033825;28;20476;-71
2023/12/23 01:54:37;;;;;;;55.60;2.10;;;;;;;;;;5034002;28;20960;-71
2023/12/23 01:57:05;;;;;;;55.50;2.10;;;;;;;;;;5034118;28;20452;-71
2023/12/23 01:59:32;;;;;;;55.57;2.20;;;;;;;;;;5034137;28;20487;-71
2023/12/23 02:02:00;;;;;;;55.50;1.97;;;;;;;;;;5033545;28;20475;-71
2023/12/23 02:04:27;;;;;;;55.30;2.20;;;;;;;;;;5034119;28;20449;-71
2023/12/23 02:06:54;;;;;;;55.40;2.10;;;;;;;;;;5033703;28;20910;-71
2023/12/23 02:09:22;;;;;;;55.60;2.30;;;;;;;;;;5034080;28;20843;-71
2023/12/23 02:11:53;;;;;;;55.70;2.53;;;;;;;;;;5033800;28;20480;-71
2023/12/23 02:14:33;;;;;;;55.40;1.90;;;;;;;;;;5034001;28;20449;-71
2023/12/23 02:17:00;;;;;;;55.70;1.97;;;;;;;;;;5032925;28;20488;-71
2023/12/23 02:19:27;;;;;;;55.20;2.10;;;;;;;;;;5033909;28;20488;-71
2023/12/23 02:21:55;;;;;;;55.63;2.30;;;;;;;;;;5044180;28;20486;-71
2023/12/23 02:24:22;;;;;;;55.40;2.20;;;;;;;;;;5040683;28;20955;-71
2023/12/23 02:26:51;;;;;;;55.40;2.00;;;;;;;;;;5044073;28;20475;-71
2023/12/23 02:29:18;;;;;;;55.37;2.20;;;;;;;;;;5036828;28;20464;-71
2023/12/23 02:31:46;;;;;;;55.37;2.10;;;;;;;;;;5044913;28;20476;-71
2023/12/23 02:34:13;;;;;;;57.57;3.50;;;;;;;;;;5047446;28;20452;-71
2023/12/23 02:36:40;;;;;;;55.37;2.20;;;;;;;;;;5042891;28;20456;-71
2023/12/23 02:39:09;;;;;;;55.37;2.13;;;;;;;;;;5041493;28;20486;-71
2023/12/23 02:41:36;;;;;;;55.50;2.30;;;;;;;;;;5032740;28;20962;-71
2023/12/23 02:44:03;;;;;;;55.83;2.17;;;;;;;;;;5040895;28;20463;-71
2023/12/23 02:46:30;;;;;;;55.47;2.07;;;;;;;;;;5048709;28;20457;-71
2023/12/23 02:48:59;;;;;;;55.57;2.00;;;;;;;;;;5043406;28;20462;-71
2023/12/23 02:51:26;;;;;;;55.37;2.33;;;;;;;;;;5038750;28;20464;-71
2023/12/23 02:53:54;;;;;;;55.53;2.00;;;;;;;;;;5040883;28;20446;-71
2023/12/23 02:56:22;;;;;;;55.27;2.17;;;;;;;;;;5044629;28;20551;-71
2023/12/23 02:58:49;;;;;;;55.57;2.40;;;;;;;;;;5043735;28;20874;-71
2023/12/23 03:01:16;;;;;;;55.47;2.13;;;;;;;;;;5032980;28;20462;-71
2023/12/23 03:03:43;;;;;;;55.47;2.00;;;;;;;;;;5032794;28;20482;-71
2023/12/23 03:06:14;;;;;;;57.60;2.60;;;;;;;;;;5044554;28;20461;-71
2023/12/23 03:08:41;;;;;;;55.60;2.10;;;;;;;;;;5046746;28;20575;-71
2023/12/23 03:11:08;;;;;;;55.47;2.20;;;;;;;;;;5040918;28;20534;-71
2023/12/23 03:13:37;;;;;;;55.50;2.10;;;;;;;;;;5032657;28;20475;-72
2023/12/23 03:16:04;;;;;;;55.37;2.43;;;;;;;;;;5048581;28;20453;-71
2023/12/23 03:18:32;;;;;;;55.23;2.20;;;;;;;;;;5032853;28;20445;-71
2023/12/23 03:20:59;;;;;;;55.40;2.10;;;;;;;;;;5032743;28;20490;-71
2023/12/23 03:23:26;;;;;;;55.40;2.10;;;;;;;;;;5032166;28;20847;-71
2023/12/23 03:25:53;;;;;;;55.50;2.07;;;;;;;;;;5032365;28;20448;-73
2023/12/23 03:28:20;;;;;;;55.40;2.00;;;;;;;;;;5032445;28;20466;-71
2023/12/23 03:30:48;;;;;;;55.37;2.10;;;;;;;;;;5032486;28;20463;-71
2023/12/23 03:33:16;;;;;;;55.17;1.97;;;;;;;;;;5032011;28;20892;-71
2023/12/23 03:35:43;;;;;;;55.90;2.40;;;;;;;;;;5039457;28;20451;-71
2023/12/23 03:38:10;;;;;;;55.17;2.30;;;;;;;;;;5039747;28;20448;-71
2023/12/23 03:40:37;;;;;;;55.20;1.97;;;;;;;;;;5032002;28;20491;-72
2023/12/23 03:43:04;;;;;;;55.30;2.13;;;;;;;;;;5031654;28;20477;-71
2023/12/23 03:45:31;;;;;;;55.57;2.10;;;;;;;;;;5032222;28;20462;-71
2023/12/23 03:48:00;;;;;;;55.37;2.10;;;;;;;;;;5031910;28;20455;-71
2023/12/23 03:50:29;;;;;;;55.30;2.23;;;;;;;;;;5031722;28;20539;-72
2023/12/23 03:52:56;;;;;;;55.43;1.90;;;;;;;;;;5031519;28;20484;-72
2023/12/23 03:55:29;;;;;;;55.60;2.40;;;;;;;;;;5031947;28;20543;-72
2023/12/23 03:57:56;;;;;;;55.50;2.27;;;;;;;;;;5032057;28;20452;-72
2023/12/23 04:00:23;;;;;;;55.30;2.07;;;;;;;;;;5031913;28;20488;-72
2023/12/23 04:02:50;;;;;;;55.43;2.30;;;;;;;;;;5031311;28;20486;-72
2023/12/23 04:05:18;;;;;;;55.50;1.90;;;;;;;;;;5031318;28;20951;-72
2023/12/23 04:07:48;;;;;;;55.47;2.10;;;;;;;;;;5032021;28;20459;-72
2023/12/23 04:10:15;;;;;;;54.93;1.83;;;;;;;;;;5043792;28;20443;-71
2023/12/23 04:12:42;;;;;;;55.23;2.10;;;;;;;;;;5051097;28;20469;-72
2023/12/23 04:15:10;;;;;;;55.27;1.87;;;;;;;;;;5051319;28;20445;-72
2023/12/23 04:17:38;;;;;;;55.33;2.10;;;;;;;;;;5051258;28;20444;-71
2023/12/23 04:20:06;;;;;;;55.27;2.20;;;;;;;;;;5051316;28;20635;-71
2023/12/23 04:22:34;;;;;;;55.47;2.00;;;;;;;;;;5050742;28;20477;-71
2023/12/23 04:25:02;;;;;;;55.47;2.00;;;;;;;;;;5051618;28;20463;-72
2023/12/23 04:27:29;;;;;;;55.50;2.03;;;;;;;;;;5051186;28;20458;-72
2023/12/23 04:29:56;;;;;;;55.30;2.10;;;;;;;;;;5051386;28;20775;-72
2023/12/23 04:32:23;;;;;;;55.30;2.00;;;;;;;;;;5050923;28;20479;-72
2023/12/23 04:34:50;;;;;;;55.50;2.30;;;;;;;;;;5051011;28;20951;-72
2023/12/23 04:37:17;;;;;;;55.60;2.50;;;;;;;;;;5051210;28;20846;-72
2023/12/23 04:39:45;;;;;;;55.30;2.10;;;;;;;;;;5051032;28;20494;-72
2023/12/23 04:42:12;;;;;;;54.90;2.30;;;;;;;;;;5050547;28;20461;-72
2023/12/23 04:44:39;;;;;;;55.47;2.17;;;;;;;;;;5050998;28;20456;-72
2023/12/23 04:47:07;;;;;;;55.33;2.40;;;;;;;;;;5051067;28;20459;-72
2023/12/23 04:49:34;;;;;;;55.40;2.10;;;;;;;;;;5050482;28;20438;-72
2023/12/23 04:52:01;;;;;;;55.50;2.30;;;;;;;;;;5050304;28;20467;-72
2023/12/23 04:54:28;;;;;;;55.43;2.10;;;;;;;;;;5037467;28;20462;-72
2023/12/23 04:56:56;;;;;;;55.60;2.00;;;;;;;;;;5030966;28;20451;-72
2023/12/23 04:59:23;;;;;;;55.17;2.10;;;;;;;;;;5030696;28;20997;-72
2023/12/23 05:01:50;;;;;;;55.57;2.20;;;;;;;;;;5030917;28;20840;-72
2023/12/23 05:04:18;;;;;;;55.33;2.00;;;;;;;;;;5031071;28;20461;-72
2023/12/23 05:06:45;;;;;;;55.40;2.10;;;;;;;;;;5030714;28;20823;-72
2023/12/23 05:09:12;;;;;;;55.50;2.37;;;;;;;;;;5030916;28;20897;-72
2023/12/23 05:11:39;;;;;;;55.33;2.10;;;;;;;;;;5030464;28;20506;-72
2023/12/23 05:14:08;;;;;;;55.50;2.30;;;;;;;;;;5030279;28;20454;-72
2023/12/23 05:16:35;;;;;;;55.60;2.13;;;;;;;;;;5039288;28;20650;-72
2023/12/23 05:19:02;;;;;;;55.57;2.27;;;;;;;;;;5040328;28;20458;-72
2023/12/23 05:21:29;;;;;;;55.43;2.07;;;;;;;;;;5033766;28;20467;-72
2023/12/23 05:23:56;;;;;;;55.50;1.93;;;;;;;;;;5049029;28;20456;-72
2023/12/23 05:26:23;;;;;;;55.50;2.10;;;;;;;;;;5030605;28;20458;-72
2023/12/23 05:28:50;;;;;;;55.40;2.30;;;;;;;;;;5032728;28;20464;-72
2023/12/23 05:31:18;;;;;;;55.37;2.03;;;;;;;;;;5041963;28;20443;-72
2023/12/23 05:33:46;;;;;;;58.43;4.20;;;;;;;;;;5045334;28;20460;-72
2023/12/23 05:36:14;;;;;;;55.33;1.97;;;;;;;;;;5030849;28;20443;-72
2023/12/23 05:38:41;;;;;;;55.60;2.23;;;;;;;;;;5031205;28;20498;-72
2023/12/23 05:41:09;;;;;;;55.50;2.00;;;;;;;;;;5030297;28;20521;-72
2023/12/23 05:43:37;;;;;;;55.27;2.20;;;;;;;;;;5043999;28;20469;-72
2023/12/23 05:46:04;;;;;;;55.37;1.90;;;;;;;;;;5032305;28;20450;-72
2023/12/23 05:48:32;;;;;;;55.27;2.00;;;;;;;;;;5030346;28;20506;-72
2023/12/23 05:50:59;;;;;;;55.27;2.10;;;;;;;;;;5030578;28;20439;-72
2023/12/23 05:53:27;;;;;;;55.47;2.40;;;;;;;;;;5039870;28;20474;-72
2023/12/23 05:55:54;;;;;;;55.60;2.20;;;;;;;;;;5040932;28;21048;-72
2023/12/23 05:58:21;;;;;;;55.37;2.10;;;;;;;;;;5030591;28;20452;-72
2023/12/23 06:00:49;;;;;;;55.40;2.10;;;;;;;;;;5041873;28;21041;-72
2023/12/23 06:03:16;;;;;;;55.47;2.10;;;;;;;;;;5042132;28;20479;-72
2023/12/23 06:05:44;;;;;;;55.50;2.10;;;;;;;;;;5037615;28;20948;-72
2023/12/23 06:08:11;;;;;;;55.40;2.10;;;;;;;;;;5045009;28;20451;-72
2023/12/23 06:10:39;;;;;;;55.50;2.00;;;;;;;;;;5040088;28;20844;-72
2023/12/23 06:13:06;;;;;;;55.60;2.00;;;;;;;;;;5033395;28;20478;-72
2023/12/23 06:15:33;;;;;;;55.17;1.70;;;;;;;;;;5039106;28;20451;-72
2023/12/23 06:18:00;;;;;;;55.50;2.00;;;;;;;;;;5033978;28;20457;-72
2023/12/23 06:20:27;;;;;;;55.53;2.20;;;;;;;;;;5033494;28;20493;-72
2023/12/23 06:22:56;;;;;;;55.40;2.00;;;;;;;;;;5033471;28;20999;-72
2023/12/23 06:25:23;;;;;;;55.60;2.00;;;;;;;;;;5033874;28;20451;-72
2023/12/23 06:27:50;;;;;;;55.17;1.90;;;;;;;;;;5034129;28;20462;-72
2023/12/23 06:30:17;;;;;;;55.43;2.23;;;;;;;;;;5037369;28;20438;-72
2023/12/23 06:32:44;;;;;;;55.50;1.83;;;;;;;;;;5038149;28;20466;-72
2023/12/23 06:35:11;;;;;;;55.43;2.00;;;;;;;;;;5040529;28;20442;-72
2023/12/23 06:37:38;;;;;;;55.50;2.13;;;;;;;;;;5046923;28;20456;-72
2023/12/23 06:40:08;;;;;;;55.37;2.10;;;;;;;;;;5038033;28;20493;-72
2023/12/23 06:42:35;;;;;;;55.60;2.20;;;;;;;;;;5043335;28;20472;-72
2023/12/23 06:45:02;;;;;;;55.60;2.10;;;;;;;;;;5049030;28;20450;-72
2023/12/23 06:47:29;;;;;;;55.43;1.90;;;;;;;;;;5038813;28;20947;-72
2023/12/23 06:49:57;;;;;;;55.47;2.10;;;;;;;;;;5036463;28;20530;-72
2023/12/23 06:52:24;;;;;;;55.50;2.30;;;;;;;;;;5045885;28;20915;-72
2023/12/23 06:54:52;;;;;;;55.40;2.00;;;;;;;;;;5044757;28;20452;-72
2023/12/23 06:57:20;;;;;;;55.60;2.20;;;;;;;;;;5045740;28;20552;-72
2023/12/23 06:59:47;;;;;;;55.47;2.10;;;;;;;;;;5045828;28;20455;-72
2023/12/23 07:02:15;;;;;;;55.60;2.20;;;;;;;;;;5045879;28;20484;-72
2023/12/23 07:04:42;;;;;;;55.40;1.97;;;;;;;;;;5033003;28;20467;-72
2023/12/23 07:07:10;;;;;;;55.30;1.80;;;;;;;;;;5032931;28;20457;-72
2023/12/23 07:09:37;;;;;;;55.30;1.80;;;;;;;;;;5032778;28;20518;-72
2023/12/23 07:12:05;;;;;;;55.60;2.30;;;;;;;;;;5031538;28;20467;-72
2023/12/23 07:14:33;;;;;;;55.17;1.83;;;;;;;;;;5032919;28;20499;-72
2023/12/23 07:17:00;;;;;;;55.37;1.93;;;;;;;;;;5032599;28;21040;-72
2023/12/23 07:19:27;;;;;;;55.57;1.87;;;;;;;;;;5034269;28;20559;-72
2023/12/23 07:21:54;;;;;;;55.37;2.17;;;;;;;;;;5050555;28;20506;-72
2023/12/23 07:24:22;;;;;;;55.27;2.20;;;;;;;;;;5032636;28;20449;-72
2023/12/23 07:26:49;;;;;;;55.17;2.00;;;;;;;;;;5032525;28;20830;-72
2023/12/23 07:29:17;;;;;;;55.37;1.80;;;;;;;;;;5032137;28;20465;-72
2023/12/23 07:31:46;;;;;;;55.50;2.10;;;;;;;;;;5033816;28;20477;-73
2023/12/23 07:34:13;;;;;;;55.47;2.10;;;;;;;;;;5038661;28;20454;-73
2023/12/23 07:36:40;;;;;;;55.50;2.20;;;;;;;;;;5032430;28;20757;-73
2023/12/23 07:39:07;;;;;;;55.30;1.80;;;;;;;;;;5032252;28;20457;-73
2023/12/23 07:41:34;;;;;;;55.37;2.20;;;;;;;;;;5032273;28;20566;-73
2023/12/23 07:44:01;;;;;;;55.03;2.00;;;;;;;;;;5032175;28;20452;-73
2023/12/23 07:46:28;;;;;;;55.50;2.37;;;;;;;;;;5042768;28;20938;-73
2023/12/23 07:48:57;;;;;;;55.67;2.27;;;;;;;;;;5036509;28;20469;-73
2023/12/23 07:51:24;;;;;;;55.50;2.20;;;;;;;;;;5043546;28;20446;-73
2023/12/23 07:53:51;;;;;;;55.47;1.80;;;;;;;;;;5038406;28;20459;-74
2023/12/23 07:56:18;;;;;;;55.40;1.90;;;;;;;;;;5040713;28;20449;-74
2023/12/23 07:58:45;;;;;;;55.40;1.90;;;;;;;;;;5031751;28;20451;-73
2023/12/23 08:01:12;;;;;;;55.50;2.23;;;;;;;;;;5031769;28;20502;-73
2023/12/23 08:03:39;;;;;;;55.37;2.10;;;;;;;;;;5031616;28;20473;-73
2023/12/23 08:06:08;;;;;;;55.47;1.90;;;;;;;;;;5031936;28;20550;-73
2023/12/23 08:08:35;;;;;;;55.60;2.23;;;;;;;;;;5032154;28;20451;-73
2023/12/23 08:11:02;;;;;;;55.50;2.30;;;;;;;;;;5031745;28;20446;-73
2023/12/23 08:13:29;;;;;;;55.60;1.80;;;;;;;;;;5031621;28;20480;-73
2023/12/23 08:15:56;;;;;;;55.40;1.90;;;;;;;;;;5031799;28;20452;-73
2023/12/23 08:18:23;;;;;;;55.47;1.90;;;;;;;;;;5031791;28;20963;-73
2023/12/23 08:20:50;;;;;;;55.57;2.03;;;;;;;;;;5032044;28;21012;-73
2023/12/23 08:23:19;;;;;;;55.40;2.00;;;;;;;;;;5031474;28;20467;-73
2023/12/23 08:25:47;;;;;;;55.60;1.73;;;;;;;;;;5031812;28;20457;-73
2023/12/23 08:28:14;;;;;;;55.50;2.00;;;;;;;;;;5031529;28;21046;-73
2023/12/23 08:30:41;;;;;;;55.70;1.97;;;;;;;;;;5031413;28;20456;-73
2023/12/23 08:33:09;;;;;;;55.33;1.70;;;;;;;;;;5031023;28;20472;-73
2023/12/23 08:35:36;;;;;;;55.60;2.00;;;;;;;;;;5031503;28;20450;-73
2023/12/23 08:38:04;;;;;;;55.40;1.90;;;;;;;;;;5031679;28;20934;-73
2023/12/23 08:40:32;;;;;;;55.07;2.00;;;;;;;;;;5031675;28;20512;-73
2023/12/23 08:42:59;;;;;;;55.07;1.93;;;;;;;;;;5031286;28;20895;-73
2023/12/23 08:45:27;;;;;;;55.30;1.93;;;;;;;;;;5031430;28;20451;-73
2023/12/23 08:47:54;;;;;;;57.03;3.13;;;;;;;;;;5031703;28;20487;-73
2023/12/23 08:50:22;;;;;;;55.37;2.20;;;;;;;;;;5031009;28;20955;-73
2023/12/23 08:52:49;;;;;;;55.67;2.47;;;;;;;;;;5030700;28;20487;-73
2023/12/23 08:55:16;;;;;;;55.30;1.90;;;;;;;;;;5047998;28;20445;-74
2023/12/23 08:57:45;;;;;;;55.37;1.80;;;;;;;;;;5031092;28;20457;-73
2023/12/23 09:00:12;;;;;;;55.23;1.73;;;;;;;;;;5031319;28;20463;-73
2023/12/23 09:02:39;;;;;;;55.40;1.90;;;;;;;;;;5030853;28;20475;-73
2023/12/23 09:05:07;;;;;;;55.17;2.00;;;;;;;;;;5030991;28;20451;-73
2023/12/23 09:07:34;;;;;;;55.53;2.00;;;;;;;;;;5030945;28;20962;-73
2023/12/23 09:10:01;;;;;;;56.50;2.43;;;;;;;;;;5031238;28;20452;-73
2023/12/23 09:12:28;;;;;;;55.03;1.80;;;;;;;;;;5030645;28;20469;-73
2023/12/23 09:14:57;;;;;;;55.60;1.97;;;;;;;;;;5031100;28;20453;-72
2023/12/23 09:17:24;;;;;;;55.63;2.00;;;;;;;;;;5030894;28;20478;-73
2023/12/23 09:19:51;;;;;;;55.77;1.90;;;;;;;;;;5030790;28;20893;-73
2023/12/23 09:22:18;;;;;;;55.33;2.00;;;;;;;;;;5030633;28;20498;-73
2023/12/23 09:24:45;;;;;;;55.47;2.10;;;;;;;;;;5031133;28;20451;-73
2023/12/23 09:27:13;;;;;;;55.37;1.90;;;;;;;;;;5030738;28;20856;-73
2023/12/23 09:29:40;;;;;;;55.43;1.90;;;;;;;;;;5031023;28;20501;-73
2023/12/23 09:32:09;;;;;;;55.17;1.80;;;;;;;;;;5030415;28;20471;-73
2023/12/23 09:34:36;;;;;;;55.50;1.90;;;;;;;;;;5031538;28;20818;-73
2023/12/23 09:37:03;;;;;;;55.43;2.00;;;;;;;;;;5034573;28;20956;-73
2023/12/23 09:39:30;;;;;;;55.30;1.90;;;;;;;;;;5046538;28;20959;-73
2023/12/23 09:41:57;;;;;;;55.40;1.90;;;;;;;;;;5054153;28;20860;-73
2023/12/23 09:44:25;;;;;;;55.70;2.00;;;;;;;;;;5054250;28;20974;-73
2023/12/23 09:46:52;;;;;;;55.27;2.00;;;;;;;;;;5054114;28;20965;-73
2023/12/23 09:49:20;;;;;;;55.40;1.80;;;;;;;;;;5054396;28;20451;-73
2023/12/23 09:51:49;;;;;;;55.33;1.90;;;;;;;;;;5054316;28;20482;-73
2023/12/23 09:54:19;;;;;;;55.63;2.07;;;;;;;;;;5053899;28;20927;-73
2023/12/23 09:56:48;;;;;;;55.07;2.03;;;;;;;;;;5054132;28;20447;-73
2023/12/23 09:59:15;;;;;;;55.70;1.70;;;;;;;;;;5053979;28;20449;-72
2023/12/23 10:01:42;;;;;;;55.20;1.70;;;;;;;;;;5053561;28;20501;-73
2023/12/23 10:04:09;;;;;;;55.27;1.90;;;;;;;;;;5053646;28;20457;-72
2023/12/23 10:06:38;;;;;;;55.47;2.10;;;;;;;;;;5053789;28;20452;-73
2023/12/23 10:09:05;;;;;;;55.70;1.87;;;;;;;;;;5053890;28;20827;-73
2023/12/23 10:11:32;;;;;;;55.17;2.10;;;;;;;;;;5053809;28;20438;-73
2023/12/23 10:13:59;;;;;;;55.40;1.83;;;;;;;;;;5053565;28;20447;-73
2023/12/23 10:16:26;;;;;;;55.27;1.80;;;;;;;;;;5053484;28;20453;-73
2023/12/23 10:18:53;;;;;;;55.70;2.00;;;;;;;;;;5053996;28;20453;-73
2023/12/23 10:21:20;;;;;;;55.27;1.90;;;;;;;;;;5053504;28;20488;-73
2023/12/23 10:23:49;;;;;;;55.47;2.40;;;;;;;;;;5053626;28;20451;-73
2023/12/23 10:26:16;;;;;;;55.67;2.00;;;;;;;;;;5053493;28;20444;-73
2023/12/23 10:28:44;;;;;;;55.30;1.73;;;;;;;;;;5053374;28;20511;-73
2023/12/23 10:31:13;;;;;;;55.50;2.00;;;;;;;;;;5053448;28;20447;-73
2023/12/23 10:33:43;;;;;;;55.77;2.10;;;;;;;;;;5053092;28;20477;-73
2023/12/23 10:36:13;;;;;;;55.50;2.07;;;;;;;;;;5053284;28;20458;-73
2023/12/23 10:38:41;;;;;;;55.80;1.90;;;;;;;;;;5053353;28;20457;-73
2023/12/23 10:41:13;;;;;;;55.37;1.93;;;;;;;;;;5053025;28;20509;-73
2023/12/23 10:43:40;;;;;;;54.97;1.70;;;;;;;;;;5053157;28;20468;-73
2023/12/23 10:46:08;;;;;;;55.50;1.87;;;;;;;;;;5052201;28;20503;-73
2023/12/23 10:48:36;;;;;;;55.27;1.90;;;;;;;;;;5053086;28;20460;-73
2023/12/23 10:51:03;;;;;;;55.17;1.90;;;;;;;;;;5053385;28;20807;-73
2023/12/23 10:53:31;;;;;;;55.60;2.10;;;;;;;;;;5052822;28;20478;-73
2023/12/23 10:55:58;;;;;;;55.70;1.80;;;;;;;;;;5053755;28;20446;-73
2023/12/23 10:58:26;;;;;;;55.57;1.57;;;;;;;;;;5053155;28;20970;-73
2023/12/23 11:00:55;;;;;;;55.40;1.70;;;;;;;;;;5053461;28;20447;-73
2023/12/23 11:03:23;;;;;;;55.50;1.70;;;;;;;;;;5052591;28;20998;-73
2023/12/23 11:05:51;;;;;;;55.57;2.20;;;;;;;;;;5052878;28;20458;-73
2023/12/23 11:08:21;;;;;;;55.43;1.63;;;;;;;;;;5052548;28;20448;-73
2023/12/23 11:10:48;;;;;;;55.43;1.90;;;;;;;;;;5052926;28;20452;-73
2023/12/23 11:13:16;;;;;;;55.37;1.57;;;;;;;;;;5052218;28;20473;-73
2023/12/23 11:15:44;;;;;;;55.40;1.80;;;;;;;;;;5052597;28;20938;-73
2023/12/23 11:18:11;;;;;;;55.30;1.90;;;;;;;;;;5053098;28;20468;-73
2023/12/23 11:20:45;;;;;;;55.37;1.90;;;;;;;;;;5052420;28;20457;-74
2023/12/23 11:23:31;;;;;;;55.43;1.90;;;;;;;;;;5046875;28;20489;-75
2023/12/23 11:25:59;;;;;;;54.87;1.90;;;;;;;;;;5048666;28;20485;-74
2023/12/23 11:28:26;;;;;;;55.57;1.87;;;;;;;;;;5041348;28;20850;-74
2023/12/23 11:30:55;;;;;;;54.93;1.67;;;;;;;;;;5041252;28;20466;-74
2023/12/23 11:33:23;;;;;;;55.07;1.73;;;;;;;;;;5046224;28;20481;-74
2023/12/23 11:35:50;;;;;;;55.30;1.80;;;;;;;;;;5040759;28;20454;-73
2023/12/23 11:38:18;;;;;;;55.07;1.90;;;;;;;;;;5048753;28;20486;-74
2023/12/23 11:40:46;;;;;;;55.17;1.63;;;;;;;;;;5046813;28;20915;-73
2023/12/23 11:43:13;;;;;;;55.30;1.80;;;;;;;;;;5041803;28;20910;-73
2023/12/23 11:45:41;;;;;;;55.47;1.90;;;;;;;;;;5031786;28;20463;-73
2023/12/23 11:48:10;;;;;;;55.17;1.90;;;;;;;;;;5031952;28;20490;-73
2023/12/23 11:50:37;;;;;;;55.57;2.00;;;;;;;;;;5045314;28;20462;-73
2023/12/23 11:53:04;;;;;;;55.47;1.97;;;;;;;;;;5043669;28;20466;-73
2023/12/23 11:55:33;;;;;;;55.27;1.70;;;;;;;;;;5050419;28;20486;-73
2023/12/23 11:58:01;;;;;;;55.40;1.90;;;;;;;;;;5044498;28;20459;-73
2023/12/23 12:00:30;;;;;;;55.40;2.10;;;;;;;;;;5031772;28;20438;-74
2023/12/23 12:02:57;;;;;;;55.23;1.73;;;;;;;;;;5031485;28;20540;-73
2023/12/23 12:05:27;;;;;;;55.17;1.70;;;;;;;;;;5030980;28;20446;-73
2023/12/23 12:07:54;;;;;;;55.40;1.90;;;;;;;;;;5030720;28;20458;-73
2023/12/23 12:10:21;;;;;;;55.23;1.73;;;;;;;;;;5030751;28;20459;-73
2023/12/23 12:12:48;;;;;;;55.60;1.70;;;;;;;;;;5031141;28;21029;-73
2023/12/23 12:15:16;;;;;;;55.50;2.20;;;;;;;;;;5031754;28;20452;-73
2023/12/23 12:17:43;;;;;;;55.50;1.80;;;;;;;;;;5031640;28;20450;-73
2023/12/23 12:20:11;;;;;;;55.37;1.60;;;;;;;;;;5030573;28;20455;-73
2023/12/23 12:22:44;;;;;;;55.37;1.63;;;;;;;;;;5030137;28;20491;-73
2023/12/23 12:25:11;;;;;;;55.60;1.80;;;;;;;;;;5030054;28;20491;-73
2023/12/23 12:27:40;;;;;;;55.70;1.73;;;;;;;;;;5043994;28;20457;-73
2023/12/23 12:30:08;;;;;;;55.50;1.90;;;;;;;;;;5051757;28;20791;-72
2023/12/23 12:32:35;;;;;;;55.27;1.70;;;;;;;;;;5050576;28;20495;-73
2023/12/23 12:35:03;;;;;;;55.30;1.80;;;;;;;;;;5051176;28;20812;-73
2023/12/23 12:37:30;;;;;;;55.50;2.00;;;;;;;;;;5051006;28;20446;-73
2023/12/23 12:39:58;;;;;;;55.40;2.10;;;;;;;;;;5051062;28;20812;-73
2023/12/23 12:42:26;;;;;;;55.60;1.80;;;;;;;;;;5050661;28;20498;-73
2023/12/23 12:45:01;;;;;;;55.20;2.03;;;;;;;;;;5050765;28;20959;-73
2023/12/23 12:47:29;;;;;;;55.60;1.90;;;;;;;;;;5051032;28;20792;-73
2023/12/23 12:50:00;;;;;;;55.50;1.90;;;;;;;;;;5051057;28;20455;-73
2023/12/23 12:52:28;;;;;;;55.60;2.00;;;;;;;;;;5050486;28;20978;-72
2023/12/23 12:54:57;;;;;;;55.27;2.23;;;;;;;;;;5051324;28;20448;-73
2023/12/23 12:57:26;;;;;;;55.27;2.00;;;;;;;;;;5050979;28;20454;-73
2023/12/23 12:59:53;;;;;;;55.17;1.80;;;;;;;;;;5050985;28;20445;-73
2023/12/23 13:02:20;;;;;;;55.50;1.80;;;;;;;;;;5050294;28;20490;-73
2023/12/23 13:04:47;;;;;;;55.07;2.03;;;;;;;;;;5050705;28;20450;-73
2023/12/23 13:07:14;;;;;;;55.30;1.77;;;;;;;;;;5050890;28;20448;-73
2023/12/23 13:09:41;;;;;;;55.27;2.00;;;;;;;;;;5031414;28;20452;-73
2023/12/23 13:12:09;;;;;;;55.20;1.77;;;;;;;;;;5034538;28;20462;-73
2023/12/23 13:14:37;;;;;;;55.27;1.90;;;;;;;;;;5034850;28;20442;-73
2023/12/23 13:17:05;;;;;;;57.97;3.70;;;;;;;;;;5034892;28;20455;-73
2023/12/23 13:19:32;;;;;;;55.17;1.90;;;;;;;;;;5034807;28;20455;-73
2023/12/23 13:21:59;;;;;;;55.27;2.00;;;;;;;;;;5034580;28;20892;-73
2023/12/23 13:24:26;;;;;;;55.03;2.00;;;;;;;;;;5034988;28;20452;-72
2023/12/23 13:26:53;;;;;;;55.33;1.80;;;;;;;;;;5037653;28;20476;-72
2023/12/23 13:29:21;;;;;;;55.27;1.80;;;;;;;;;;5051691;28;20457;-73
2023/12/23 13:31:50;;;;;;;55.50;2.00;;;;;;;;;;5041439;28;20469;-72
2023/12/23 13:34:17;;;;;;;55.60;1.80;;;;;;;;;;5034682;28;20510;-73
2023/12/23 13:36:44;;;;;;;55.33;1.80;;;;;;;;;;5034687;28;20446;-73
2023/12/23 13:39:11;;;;;;;55.60;1.90;;;;;;;;;;5034678;28;20449;-73
2023/12/23 13:41:38;;;;;;;55.23;1.90;;;;;;;;;;5034435;28;20897;-73
2023/12/23 13:44:06;;;;;;;55.27;2.00;;;;;;;;;;5034355;28;20450;-73
2023/12/23 13:46:33;;;;;;;55.50;1.97;;;;;;;;;;5034184;28;20506;-73
2023/12/23 13:49:01;;;;;;;55.27;2.03;;;;;;;;;;5034667;28;20454;-73
2023/12/23 13:51:28;;;;;;;55.37;1.97;;;;;;;;;;5034222;28;20485;-73
2023/12/23 13:53:55;;;;;;;55.70;2.10;;;;;;;;;;5040236;28;20459;-73
2023/12/23 13:56:23;;;;;;;55.33;2.20;;;;;;;;;;5042322;28;20547;-73
2023/12/23 13:58:50;;;;;;;55.47;2.30;;;;;;;;;;5034275;28;20539;-73
2023/12/23 14:01:17;;;;;;;55.27;1.90;;;;;;;;;;5039335;28;20460;-73
2023/12/23 14:03:44;;;;;;;55.43;1.80;;;;;;;;;;5034345;28;20502;-73
2023/12/23 14:06:13;;;;;;;55.37;2.07;;;;;;;;;;5035055;28;20459;-72
2023/12/23 14:08:40;;;;;;;55.43;1.90;;;;;;;;;;5046240;28;20456;-72
2023/12/23 14:11:07;;;;;;;55.23;1.90;;;;;;;;;;5049470;28;20448;-72
2023/12/23 14:13:34;;;;;;;55.47;2.20;;;;;;;;;;5053453;28;20459;-72
2023/12/23 14:16:01;;;;;;;55.40;1.90;;;;;;;;;;5053842;28;20448;-72
2023/12/23 14:18:28;;;;;;;55.33;1.90;;;;;;;;;;5053854;28;20473;-72
2023/12/23 14:20:55;;;;;;;55.40;1.70;;;;;;;;;;5053500;28;20474;-71
2023/12/23 14:23:24;;;;;;;55.33;2.00;;;;;;;;;;5053307;28;20492;-71
2023/12/23 14:25:51;;;;;;;55.40;1.83;;;;;;;;;;5053502;28;20829;-71
2023/12/23 14:28:18;;;;;;;55.30;1.87;;;;;;;;;;5053597;28;20462;-71
2023/12/23 14:30:45;;;;;;;55.47;2.00;;;;;;;;;;5045577;28;21008;-71
2023/12/23 14:33:13;;;;;;;55.40;1.90;;;;;;;;;;5049950;28;20468;-72